Time;durP1;ratioP1;P1;durP2;ratioP2;P2;SDS_P1;SDS_P2;PMS_P1;PMS_P2;Temp;Humidity;BMP_temperature;BMP_pressure;BME280_temperature;BME280_humidity;BME280_pressure;Samples;Min_cycle;Max_cycle;Signal;HPM_P1;HPM_P2
2022/06/20 00:00:46;;;;;;;440.77;415.95;;;;;;;26.42;51.30;95940.56;5073551;28;20272;-75
2022/06/20 00:03:24;;;;;;;163.73;154.38;;;;;;;26.53;51.17;95937.34;5072800;28;20686;-74
2022/06/20 00:05:49;;;;;;;74.07;69.00;;;;;;;26.40;51.74;95947.44;5073358;28;20181;-74
2022/06/20 00:08:16;;;;;;;147.05;138.48;;;;;;;26.55;51.54;95940.47;5072042;28;20565;-74
2022/06/20 00:10:43;;;;;;;99.28;93.30;;;;;;;26.57;51.84;95935.53;5073465;28;20192;-73
2022/06/20 00:13:23;;;;;;;136.98;128.98;;;;;;;26.55;51.85;95940.47;5072929;28;20255;-74
2022/06/20 00:15:51;;;;;;;235.00;222.15;;;;;;;26.29;52.53;95946.41;5071110;28;20219;-73
2022/06/20 00:18:17;;;;;;;328.08;310.00;;;;;;;26.27;52.67;95937.88;5072402;28;20181;-75
2022/06/20 00:20:43;;;;;;;392.88;370.92;;;;;;;26.25;53.04;95940.16;5055406;28;20181;-75
2022/06/20 00:23:08;;;;;;;484.60;457.52;;;;;;;25.95;53.86;95945.94;5073339;28;20189;-74
2022/06/20 00:25:36;;;;;;;591.80;556.97;;;;;;;26.01;53.83;95947.22;5072923;28;20279;-73
2022/06/20 00:28:01;;;;;;;663.20;622.47;;;;;;;26.10;53.51;95947.03;5072099;28;20227;-75
2022/06/20 00:30:27;;;;;;;734.40;686.80;;;;;;;25.73;54.53;95933.06;5072834;28;20698;-74
2022/06/20 00:32:53;;;;;;;768.55;716.85;;;;;;;25.53;55.07;95932.13;5072492;28;20686;-74
2022/06/20 00:35:18;;;;;;;773.78;722.05;;;;;;;25.48;55.54;95924.31;5054563;28;20595;-73
2022/06/20 00:37:44;;;;;;;747.72;698.08;;;;;;;25.73;54.92;95929.59;5073058;28;20193;-73
2022/06/20 00:40:24;;;;;;;725.92;678.40;;;;;;;25.62;55.29;95923.97;5052246;28;20211;-74
2022/06/20 00:42:51;;;;;;;687.28;642.67;;;;;;;25.85;54.83;95926.84;5071804;28;20657;-74
2022/06/20 00:45:18;;;;;;;653.38;611.80;;;;;;;25.65;55.26;95942.06;5072132;28;20281;-74
2022/06/20 00:47:46;;;;;;;658.08;616.63;;;;;;;25.59;55.45;95936.16;5073562;28;20208;-73
2022/06/20 00:50:28;;;;;;;685.53;641.90;;;;;;;25.83;55.05;95959.41;5076710;28;20227;-73
2022/06/20 00:53:12;;;;;;;687.03;643.00;;;;;;;25.82;55.13;95951.69;5078036;28;20245;-74
2022/06/20 00:55:51;;;;;;;701.35;655.63;;;;;;;26.03;54.53;95962.97;5077130;28;20181;-72
2022/06/20 00:58:37;;;;;;;719.88;672.47;;;;;;;26.16;53.84;95956.41;5077321;28;20176;-72
2022/06/20 01:01:03;;;;;;;715.38;667.85;;;;;;;26.20;53.97;95964.53;5085762;28;20199;-72
2022/06/20 01:03:34;;;;;;;729.40;681.03;;;;;;;26.17;54.38;95968.72;5077286;28;20182;-72
2022/06/20 01:06:10;;;;;;;744.50;694.85;;;;;;;25.83;55.31;95961.31;5076826;28;20174;-72
2022/06/20 01:09:09;;;;;;;769.30;717.15;;;;;;;25.83;55.42;95974.75;5078411;28;20669;-73
2022/06/20 01:11:49;;;;;;;876.30;813.13;;;;;;;26.15;54.79;95972.88;5018885;28;20206;-72
2022/06/20 01:14:38;;;;;;;481.45;447.88;;;;;;;26.02;68.18;95967.59;5069243;28;20196;-68
2022/06/20 01:17:32;;;;;;;716.63;660.20;;;;;;;24.32;94.18;95959.19;5076504;28;20178;-66
2022/06/20 01:20:06;;;;;;;740.50;687.40;;;;;;;23.06;100.00;95949.09;5076491;28;20528;-66
2022/06/20 01:22:38;;;;;;;378.20;355.15;;;;;;;22.97;100.00;95943.78;5078523;28;20245;-65
2022/06/20 01:25:24;;;;;;;477.00;448.42;;;;;;;23.11;100.00;95944.31;5076351;28;20189;-65
2022/06/20 01:27:51;;;;;;;446.23;418.40;;;;;;;23.14;100.00;95940.19;5076007;28;20251;-66
2022/06/20 01:30:19;;;;;;;375.55;353.52;;;;;;;23.01;100.00;95947.41;5067353;28;20189;-66
2022/06/20 01:32:44;;;;;;;316.50;298.27;;;;;;;23.11;100.00;95946.22;5076973;28;20601;-65
2022/06/20 01:37:23;;;;;;;314.10;295.23;;;;;;;23.10;100.00;95939.28;5076332;28;20260;-66
2022/06/20 01:38:01;;;;;;;324.70;305.55;;;;;;;22.95;100.00;95938.00;5076677;28;20263;-66
2022/06/20 01:40:28;;;;;;;342.17;322.65;;;;;;;23.11;100.00;95938.97;5065552;28;20642;-65
2022/06/20 01:42:53;;;;;;;291.92;274.75;;;;;;;22.94;100.00;95941.00;5075790;28;20177;-67
2022/06/20 01:48:08;;;;;;;300.88;284.20;;;;;;;22.90;100.00;95948.91;5074996;28;20200;-66
2022/06/20 01:50:34;;;;;;;292.17;274.50;;;;;;;22.86;100.00;95947.97;5076205;28;20294;-66
2022/06/20 01:53:02;;;;;;;375.55;353.10;;;;;;;22.67;100.00;95947.59;5076582;28;20177;-66
2022/06/20 01:55:29;;;;;;;337.33;317.35;;;;;;;22.89;100.00;95951.88;5075109;28;20192;-66
2022/06/20 01:58:04;;;;;;;322.63;304.17;;;;;;;22.73;100.00;95957.03;5074968;28;20181;-66
2022/06/20 02:00:30;;;;;;;324.00;304.73;;;;;;;22.80;100.00;95958.06;5057515;28;20196;-66
2022/06/20 02:03:01;;;;;;;283.13;266.52;;;;;;;22.51;100.00;95954.63;5075889;28;20193;-67
2022/06/20 02:05:31;;;;;;;305.83;287.90;;;;;;;22.51;100.00;95950.06;5075288;28;20588;-67
2022/06/20 02:08:00;;;;;;;279.30;262.92;;;;;;;22.62;100.00;95950.47;5077701;28;20205;-66
2022/06/20 02:10:31;;;;;;;286.85;269.77;;;;;;;22.56;100.00;95949.09;5075583;28;20967;-67
2022/06/20 02:13:00;;;;;;;362.05;341.35;;;;;;;22.53;100.00;95958.50;5075062;28;20170;-66
2022/06/20 02:15:27;;;;;;;328.70;309.33;;;;;;;22.60;100.00;95952.66;5067288;28;20194;-66
2022/06/20 02:17:53;;;;;;;365.17;344.15;;;;;;;22.56;100.00;95957.09;5075395;28;20182;-67
2022/06/20 02:20:27;;;;;;;281.20;264.92;;;;;;;22.34;100.00;95948.25;5074488;28;20185;-66
2022/06/20 02:22:53;;;;;;;154.63;145.48;;;;;;;22.59;98.75;95951.88;5078807;28;20191;-65
2022/06/20 02:25:24;;;;;;;177.02;166.85;;;;;;;22.61;96.87;95946.22;5067052;28;20185;-66
2022/06/20 02:28:02;;;;;;;163.38;153.70;;;;;;;22.66;95.96;95935.34;5074592;28;20558;-66
2022/06/20 02:30:29;;;;;;;426.90;401.13;;;;;;;22.54;94.02;95937.94;5074428;28;20259;-67
2022/06/20 02:33:25;;;;;;;338.98;319.95;;;;;;;22.44;92.33;95941.75;5074410;28;20691;-67
2022/06/20 02:35:53;;;;;;;215.18;203.23;;;;;;;22.42;90.54;95941.28;5072810;28;20200;-67
2022/06/20 02:38:20;;;;;;;299.88;282.88;;;;;;;22.43;90.50;95942.06;5072688;28;20306;-66
2022/06/20 02:40:45;;;;;;;382.85;360.45;;;;;;;22.46;88.58;95952.13;5074657;28;20696;-66
2022/06/20 02:43:17;;;;;;;449.40;423.08;;;;;;;22.49;88.99;95962.16;5074638;28;20174;-67
2022/06/20 02:45:44;;;;;;;397.92;373.20;;;;;;;22.50;87.81;95971.75;5074660;28;20185;-73
2022/06/20 02:48:12;;;;;;;359.10;336.42;;;;;;;22.58;88.74;95990.38;5074130;28;20207;-66
2022/06/20 02:50:44;;;;;;;395.40;371.70;;;;;;;22.33;92.45;96015.34;5074955;28;20703;-66
2022/06/20 02:53:26;;;;;;;465.77;435.67;;;;;;;22.05;94.62;95990.13;5074445;28;20181;-66
2022/06/20 02:55:54;;;;;;;488.65;459.02;;;;;;;22.02;95.46;95977.41;5062525;28;20181;-67
2022/06/20 02:58:25;;;;;;;474.83;446.65;;;;;;;22.03;96.74;95974.44;5057745;28;20264;-66
2022/06/20 03:01:21;;;;;;;410.17;386.38;;;;;;;22.14;94.26;95972.19;5074075;28;20262;-66
2022/06/20 03:03:49;;;;;;;433.83;409.00;;;;;;;22.08;89.21;95979.59;5073440;28;20629;-66
2022/06/20 03:06:31;;;;;;;363.38;342.67;;;;;;;22.05;87.91;95982.91;5073775;28;20272;-66
2022/06/20 03:08:57;;;;;;;340.60;321.27;;;;;;;22.19;86.92;95985.38;5075554;28;20196;-66
2022/06/20 03:11:27;;;;;;;367.17;345.75;;;;;;;22.19;88.17;95977.34;5055646;28;20201;-66
2022/06/20 03:13:53;;;;;;;391.13;367.98;;;;;;;21.97;91.49;95981.84;5073648;28;20193;-65
2022/06/20 03:16:21;;;;;;;408.80;384.80;;;;;;;21.97;89.25;95979.16;5073464;28;20187;-66
2022/06/20 03:18:49;;;;;;;308.98;291.35;;;;;;;22.06;86.11;95981.81;5073411;28;20196;-66
2022/06/20 03:21:21;;;;;;;327.08;308.25;;;;;;;22.13;87.29;95994.66;5073579;28;20540;-66
2022/06/20 03:23:47;;;;;;;333.73;314.13;;;;;;;21.96;88.24;95995.50;5074749;28;20177;-66
2022/06/20 03:26:18;;;;;;;334.48;315.52;;;;;;;21.94;92.44;95995.00;5073612;28;20598;-66
2022/06/20 03:28:43;;;;;;;433.50;408.05;;;;;;;21.83;91.63;95997.25;5060470;28;20221;-66
2022/06/20 03:31:10;;;;;;;392.05;368.92;;;;;;;21.65;97.63;96002.91;5073372;28;20268;-66
2022/06/20 03:33:36;;;;;;;458.20;430.92;;;;;;;21.63;98.37;96021.09;5073568;28;20220;-66
2022/06/20 03:36:04;;;;;;;277.65;261.13;;;;;;;21.59;99.81;96015.63;5073065;28;20185;-66
2022/06/20 03:38:30;;;;;;;188.45;177.30;;;;;;;21.39;100.00;96026.94;5071140;28;20335;-65
2022/06/20 03:40:55;;;;;;;117.07;109.07;;;;;;;21.31;100.00;96041.03;5073286;28;20189;-66
2022/06/20 03:43:24;;;;;;;164.70;155.32;;;;;;;21.19;100.00;96030.19;5072996;28;20186;-66
2022/06/20 03:45:55;;;;;;;564.50;526.47;;;;;;;21.21;100.00;96031.47;5073221;28;20274;-66
2022/06/20 03:48:27;;;;;;;444.60;417.80;;;;;;;21.07;100.00;96070.75;5072206;28;20189;-66
2022/06/20 03:51:05;;;;;;;277.80;261.40;;;;;;;20.89;100.00;96087.81;5072703;28;20197;-65
2022/06/20 03:53:42;;;;;;;270.38;255.07;;;;;;;20.55;100.00;96105.22;5073933;28;20626;-65
2022/06/20 03:56:14;;;;;;;208.02;195.75;;;;;;;20.56;100.00;96095.38;5073126;28;20657;-66
2022/06/20 03:59:03;;;;;;;392.42;368.70;;;;;;;20.24;100.00;96075.91;5073164;28;20525;-65
2022/06/20 04:01:57;;;;;;;227.38;214.13;;;;;;;20.20;100.00;96069.63;5072951;28;20626;-65
2022/06/20 04:04:33;;;;;;;220.50;208.05;;;;;;;20.15;100.00;96088.38;5072321;28;20165;-66
2022/06/20 04:07:03;;;;;;;262.52;247.82;;;;;;;20.11;100.00;96119.38;5072418;28;20193;-66
2022/06/20 04:12:32;;;;;;;203.80;191.77;;;;;;;20.01;100.00;96097.50;5072206;28;20251;-65
2022/06/20 04:15:12;;;;;;;213.50;200.90;;;;;;;20.10;100.00;96098.38;5061102;28;20189;-66
2022/06/20 04:20:49;;;;;;;212.30;200.05;;;;;;;19.92;100.00;96142.69;5059425;28;20283;-66
2022/06/20 04:23:27;;;;;;;181.90;170.93;;;;;;;20.01;100.00;96103.63;5072723;28;20188;-66
2022/06/20 04:26:05;;;;;;;190.88;179.30;;;;;;;19.87;100.00;96114.34;5072887;28;20587;-66
2022/06/20 04:28:37;;;;;;;173.93;164.13;;;;;;;19.95;100.00;96138.66;5072784;28;20201;-65
2022/06/20 04:31:22;;;;;;;152.35;142.98;;;;;;;19.97;100.00;96150.56;5072138;28;20173;-67
2022/06/20 04:33:48;;;;;;;150.55;141.18;;;;;;;19.90;100.00;96166.91;5072340;28;20216;-66
2022/06/20 04:36:31;;;;;;;209.98;198.25;;;;;;;19.91;100.00;96162.38;5071900;28;20895;-66
2022/06/20 04:39:05;;;;;;;182.68;171.45;;;;;;;19.93;100.00;96155.69;5070938;28;20291;-65
2022/06/20 04:41:49;;;;;;;174.35;164.02;;;;;;;19.93;100.00;96174.31;5071925;28;20259;-66
2022/06/20 04:44:27;;;;;;;144.95;136.00;;;;;;;19.96;100.00;96167.59;5072051;28;20173;-65
2022/06/20 04:47:11;;;;;;;156.80;146.95;;;;;;;19.85;100.00;96132.47;5072312;28;20166;-65
2022/06/20 04:49:38;;;;;;;187.40;176.32;;;;;;;19.97;100.00;96136.47;5072214;28;20234;-65
2022/06/20 04:52:03;;;;;;;194.60;183.20;;;;;;;20.03;100.00;96141.38;5072052;28;20177;-66
2022/06/20 04:54:29;;;;;;;167.75;157.75;;;;;;;20.08;100.00;96143.91;5072418;28;20192;-66
2022/06/20 04:56:55;;;;;;;333.02;312.83;;;;;;;20.04;100.00;96126.97;5072070;28;20260;-67
2022/06/20 04:59:26;;;;;;;291.77;275.02;;;;;;;19.97;100.00;96126.59;5071999;28;20189;-66
2022/06/20 05:01:53;;;;;;;250.70;236.65;;;;;;;20.02;100.00;96115.84;5072497;28;20178;-65
2022/06/20 05:04:38;;;;;;;237.32;223.63;;;;;;;19.91;100.00;96117.16;5071977;28;20211;-66
2022/06/20 05:07:12;;;;;;;187.52;173.70;;;;;;;19.98;100.00;96128.19;5053973;28;20188;-66
2022/06/20 05:09:57;;;;;;;200.30;188.50;;;;;;;20.18;100.00;96127.69;5071751;28;20185;-66
2022/06/20 05:12:35;;;;;;;190.52;179.52;;;;;;;20.26;100.00;96115.53;5070968;28;20542;-69
2022/06/20 05:15:42;;;;;;;181.48;170.85;;;;;;;20.10;100.00;96128.44;5061279;28;20527;-65
2022/06/20 05:18:30;;;;;;;169.98;159.93;;;;;;;20.22;100.00;96141.19;5044059;28;20209;-65
2022/06/20 05:21:00;;;;;;;167.77;158.15;;;;;;;20.42;100.00;96156.69;5072026;28;20672;-66
2022/06/20 05:23:39;;;;;;;240.15;226.77;;;;;;;20.65;100.00;96152.09;5072099;28;20311;-65
2022/06/20 05:26:08;;;;;;;240.50;226.40;;;;;;;20.77;100.00;96152.34;5072128;28;20242;-71
2022/06/20 05:28:36;;;;;;;172.45;162.55;;;;;;;20.71;100.00;96146.34;5054302;28;20853;-71
2022/06/20 05:31:03;;;;;;;166.10;155.82;;;;;;;20.78;100.00;96145.13;5072203;28;20186;-71
2022/06/20 05:34:10;;;;;;;127.75;120.15;;;;;;;20.79;100.00;96144.81;5072205;28;20188;-71
2022/06/20 05:36:54;;;;;;;147.45;138.50;;;;;;;20.79;100.00;96152.78;5065516;28;20217;-71
2022/06/20 05:39:29;;;;;;;255.00;240.52;;;;;;;20.64;100.00;96169.19;5075806;28;20554;-71
2022/06/20 05:41:55;;;;;;;286.75;271.13;;;;;;;20.53;100.00;96186.50;5076057;28;20242;-73
2022/06/20 05:44:21;;;;;;;366.85;346.52;;;;;;;20.43;100.00;96173.44;5060918;28;20185;-72
2022/06/20 05:46:55;;;;;;;407.80;384.38;;;;;;;20.76;100.00;96177.38;5074947;28;20264;-69
2022/06/20 05:49:29;;;;;;;423.35;398.90;;;;;;;20.72;100.00;96179.88;5075420;28;20169;-69
2022/06/20 05:51:58;;;;;;;343.52;323.83;;;;;;;20.70;100.00;96179.41;5075642;28;20166;-68
2022/06/20 05:54:27;;;;;;;257.60;243.15;;;;;;;20.50;100.00;96179.94;5075336;28;20189;-69
2022/06/20 05:57:08;;;;;;;262.92;248.15;;;;;;;20.52;100.00;96195.56;5075500;28;20634;-69
2022/06/20 05:59:45;;;;;;;260.90;246.43;;;;;;;20.45;100.00;96196.00;5075308;28;20177;-68
2022/06/20 06:02:25;;;;;;;328.52;309.65;;;;;;;20.45;100.00;96193.34;5075395;28;20533;-69
2022/06/20 06:04:53;;;;;;;324.83;306.27;;;;;;;20.72;100.00;96179.88;5075183;28;20181;-72
2022/06/20 06:07:27;;;;;;;309.10;291.52;;;;;;;20.68;100.00;96164.81;5056400;28;20209;-71
2022/06/20 06:10:22;;;;;;;414.75;390.95;;;;;;;21.04;100.00;96157.44;5075153;28;20205;-70
2022/06/20 06:12:52;;;;;;;387.48;365.42;;;;;;;20.89;100.00;96167.75;5073376;28;20193;-72
2022/06/20 06:15:33;;;;;;;356.55;336.45;;;;;;;20.89;100.00;96175.72;5074641;28;20235;-70
2022/06/20 06:18:03;;;;;;;327.00;308.75;;;;;;;20.86;100.00;96176.34;5074532;28;20185;-70
2022/06/20 06:20:31;;;;;;;357.27;336.70;;;;;;;20.79;100.00;96170.69;5056889;28;20188;-71
2022/06/20 06:23:00;;;;;;;347.63;327.65;;;;;;;20.89;100.00;96178.41;5074710;28;20192;-71
2022/06/20 06:25:33;;;;;;;282.80;266.13;;;;;;;21.03;100.00;96179.84;5059250;28;20200;-70
2022/06/20 06:28:11;;;;;;;295.05;278.25;;;;;;;21.31;100.00;96167.13;5074511;28;20209;-70
2022/06/20 06:30:46;;;;;;;288.23;272.17;;;;;;;21.19;100.00;96174.13;5074353;28;20640;-70
2022/06/20 06:33:29;;;;;;;297.65;280.98;;;;;;;21.31;100.00;96169.78;5074451;28;20211;-71
2022/06/20 06:36:11;;;;;;;284.30;268.20;;;;;;;21.70;100.00;96166.25;5071156;28;20555;-70
2022/06/20 06:38:43;;;;;;;172.10;162.00;;;;;;;21.31;100.00;96174.34;5068607;28;20236;-70
2022/06/20 06:41:35;;;;;;;160.73;151.55;;;;;;;21.35;100.00;96175.28;5073948;28;20207;-71
2022/06/20 06:44:04;;;;;;;137.88;129.68;;;;;;;21.88;100.00;96175.84;5063526;28;20189;-73
2022/06/20 06:46:37;;;;;;;299.60;282.20;;;;;;;22.30;100.00;96184.19;5073079;28;20185;-72
2022/06/20 06:49:19;;;;;;;388.55;365.77;;;;;;;22.38;100.00;96180.72;5074237;28;20284;-73
2022/06/20 06:51:56;;;;;;;345.73;325.70;;;;;;;22.32;95.54;96177.44;5074993;28;20177;-73
2022/06/20 06:54:43;;;;;;;336.55;316.83;;;;;;;22.23;97.35;96187.34;5074974;28;20642;-73
2022/06/20 06:57:20;;;;;;;258.27;243.38;;;;;;;22.36;100.00;96193.59;5070948;28;20186;-74
2022/06/20 06:59:48;;;;;;;364.60;343.02;;;;;;;22.90;100.00;96194.00;5072652;28;20173;-74
2022/06/20 07:02:18;;;;;;;406.08;381.60;;;;;;;22.64;93.41;96205.50;5071348;28;20190;-74
2022/06/20 07:04:53;;;;;;;480.45;449.85;;;;;;;22.68;96.71;96203.75;5073280;28;20204;-73
2022/06/20 07:07:29;;;;;;;399.88;375.88;;;;;;;23.40;86.29;96208.28;5054166;28;20273;-74
2022/06/20 07:09:56;;;;;;;210.55;197.68;;;;;;;22.93;84.21;96212.84;5073288;28;20195;-74
2022/06/20 07:12:33;;;;;;;229.23;215.88;;;;;;;22.55;87.11;96211.97;5073163;28;20269;-73
2022/06/20 07:15:13;;;;;;;519.67;488.38;;;;;;;22.27;91.60;96214.19;5070806;28;20188;-73
2022/06/20 07:18:01;;;;;;;588.00;550.58;;;;;;;22.12;94.62;96212.00;5073174;28;20677;-73
2022/06/20 07:20:39;;;;;;;308.20;290.13;;;;;;;22.19;93.61;96210.41;5073083;28;20169;-73
2022/06/20 07:23:09;;;;;;;368.27;346.75;;;;;;;22.15;95.49;96212.16;5072865;28;20692;-73
2022/06/20 07:25:39;;;;;;;371.90;350.77;;;;;;;23.07;90.21;96216.09;5072137;28;20186;-73
2022/06/20 07:28:22;;;;;;;394.95;371.65;;;;;;;23.51;86.18;96214.06;5055224;28;20677;-73
2022/06/20 07:30:53;;;;;;;561.72;526.42;;;;;;;23.02;89.67;96213.59;5072845;28;20176;-74
2022/06/20 07:33:26;;;;;;;413.33;388.40;;;;;;;23.17;90.48;96207.75;5073079;28;20184;-74
2022/06/20 07:35:56;;;;;;;429.27;402.95;;;;;;;22.82;95.38;96208.16;5070658;28;20672;-73
2022/06/20 07:38:36;;;;;;;435.20;408.98;;;;;;;23.15;92.02;96209.16;5072154;28;20304;-73
2022/06/20 07:41:08;;;;;;;394.98;371.38;;;;;;;22.96;94.42;96211.44;5054985;28;20181;-73
2022/06/20 07:43:46;;;;;;;369.02;347.73;;;;;;;23.69;92.32;96215.50;5072625;28;20264;-73
2022/06/20 07:46:30;;;;;;;506.00;474.98;;;;;;;24.27;85.85;96213.88;5053911;28;20204;-74
2022/06/20 07:49:01;;;;;;;603.45;565.70;;;;;;;24.39;87.40;96208.59;5072296;28;20193;-75
2022/06/20 07:51:40;;;;;;;308.77;291.08;;;;;;;24.02;83.44;96218.28;5065201;28;20173;-74
2022/06/20 07:54:37;;;;;;;249.15;235.15;;;;;;;24.39;79.71;96224.66;5076876;28;20188;-74
2022/06/20 07:57:24;;;;;;;267.17;252.48;;;;;;;25.18;77.55;96237.78;5067858;28;20204;-74
2022/06/20 08:00:20;;;;;;;206.77;195.68;;;;;;;24.57;78.93;96236.81;5072223;28;20175;-73
2022/06/20 08:02:55;;;;;;;250.68;237.43;;;;;;;25.29;77.06;96238.13;5052667;28;20653;-74
2022/06/20 08:05:29;;;;;;;294.08;278.85;;;;;;;25.49;75.66;96234.53;5057627;28;20185;-73
2022/06/20 08:08:07;;;;;;;386.20;365.02;;;;;;;25.69;76.26;96243.59;5053659;28;20209;-72
2022/06/20 08:10:41;;;;;;;245.80;232.63;;;;;;;24.91;77.45;96249.09;5052717;28;20169;-73
2022/06/20 08:13:35;;;;;;;440.63;416.98;;;;;;;25.22;79.55;96249.41;5061775;28;20185;-73
2022/06/20 08:16:14;;;;;;;245.38;231.45;;;;;;;25.95;70.76;96248.63;5070803;28;20300;-73
2022/06/20 08:18:40;;;;;;;254.43;240.13;;;;;;;25.60;72.81;96246.41;5072472;28;20188;-73
2022/06/20 08:21:17;;;;;;;336.50;317.73;;;;;;;25.09;71.31;96255.84;5072218;28;20711;-73
2022/06/20 08:23:48;;;;;;;391.95;369.08;;;;;;;26.02;70.68;96254.22;5072069;28;20256;-74
2022/06/20 08:26:21;;;;;;;261.83;247.07;;;;;;;25.31;72.20;96264.59;5070523;28;20196;-73
2022/06/20 08:28:58;;;;;;;246.00;231.77;;;;;;;25.88;71.30;96261.84;5071661;28;20563;-73
2022/06/20 08:31:30;;;;;;;210.88;199.38;;;;;;;25.17;70.98;96262.25;5071595;28;20600;-73
2022/06/20 08:34:19;;;;;;;215.93;203.68;;;;;;;24.78;72.88;96258.19;5071812;28;20216;-70
2022/06/20 08:36:47;;;;;;;193.00;181.82;;;;;;;24.83;71.26;96261.47;5052529;28;20563;-70
2022/06/20 08:39:21;;;;;;;205.93;194.75;;;;;;;25.38;68.63;96265.63;5071464;28;20237;-70
2022/06/20 08:41:52;;;;;;;156.77;147.82;;;;;;;25.65;66.78;96274.94;5072078;28;20177;-71
2022/06/20 08:44:37;;;;;;;177.57;167.70;;;;;;;26.25;64.52;96276.06;5070734;28;21826;-71
2022/06/20 08:47:27;;;;;;;301.42;284.80;;;;;;;26.55;60.45;96266.53;5070644;28;20187;-71
2022/06/20 08:50:12;;;;;;;276.83;261.38;;;;;;;26.40;58.71;96278.03;5072002;28;20166;-71
2022/06/20 08:52:59;;;;;;;310.27;293.13;;;;;;;26.23;59.80;96272.91;5072145;28;20243;-71
2022/06/20 08:55:33;;;;;;;292.70;276.50;;;;;;;26.80;58.54;96268.03;5071710;28;20246;-71
2022/06/20 08:58:11;;;;;;;395.67;371.40;;;;;;;27.34;55.25;96270.19;5071730;28;20211;-71
2022/06/20 09:00:55;;;;;;;382.75;359.13;;;;;;;26.79;56.36;96269.13;5072215;28;20246;-71
2022/06/20 09:03:47;;;;;;;391.60;368.92;;;;;;;26.35;56.52;96270.97;5072061;28;20264;-71
2022/06/20 09:06:31;;;;;;;424.02;399.52;;;;;;;26.56;56.80;96264.63;5053646;28;20533;-71
2022/06/20 09:09:32;;;;;;;429.55;404.63;;;;;;;26.94;56.17;96264.94;5073728;28;20205;-71
2022/06/20 09:12:25;;;;;;;417.88;393.45;;;;;;;27.11;55.07;96267.31;5056695;28;20205;-71
2022/06/20 09:15:08;;;;;;;420.73;396.60;;;;;;;27.13;54.82;96266.97;5073948;28;20181;-71
2022/06/20 09:17:56;;;;;;;402.13;379.17;;;;;;;27.51;53.41;96269.88;5075731;28;20225;-71
2022/06/20 09:20:28;;;;;;;400.33;377.08;;;;;;;27.10;55.37;96273.81;5075328;28;20166;-71
2022/06/20 09:23:08;;;;;;;436.88;411.35;;;;;;;27.46;54.83;96278.19;5075763;28;20236;-70
2022/06/20 09:25:54;;;;;;;380.30;358.50;;;;;;;27.69;52.59;96271.09;5074774;28;20525;-71
2022/06/20 09:28:46;;;;;;;435.17;409.58;;;;;;;27.46;54.26;96272.81;5062688;28;20197;-71
2022/06/20 09:31:30;;;;;;;440.45;414.45;;;;;;;27.69;53.97;96265.72;5075365;28;20638;-71
2022/06/20 09:33:55;;;;;;;354.15;334.08;;;;;;;27.69;53.28;96276.50;5074546;28;20231;-71
2022/06/20 09:36:49;;;;;;;266.23;251.40;;;;;;;28.01;52.56;96271.81;5073831;28;20197;-71
2022/06/20 09:39:28;;;;;;;158.45;149.60;;;;;;;28.11;51.18;96275.88;5075246;28;20586;-71
2022/06/20 09:42:16;;;;;;;142.77;134.70;;;;;;;27.80;51.97;96278.66;5056975;28;20181;-71
2022/06/20 09:44:48;;;;;;;150.75;142.48;;;;;;;28.13;51.25;96270.97;5061247;28;20193;-71
2022/06/20 09:47:43;;;;;;;146.27;137.85;;;;;;;27.49;54.47;96274.81;5074109;28;20658;-71
2022/06/20 09:50:31;;;;;;;118.72;112.07;;;;;;;27.01;53.84;96272.41;5025911;28;20202;-71
2022/06/20 09:53:07;;;;;;;136.38;128.85;;;;;;;26.61;55.51;96280.53;5075101;28;20174;-71
2022/06/20 09:55:42;;;;;;;144.25;135.95;;;;;;;27.23;54.42;96275.31;5074759;28;20173;-71
2022/06/20 09:58:22;;;;;;;141.95;134.02;;;;;;;27.17;53.44;96274.00;5075656;28;20224;-70
2022/06/20 10:00:50;;;;;;;136.98;129.52;;;;;;;27.79;52.45;96279.78;5075978;28;20173;-70
2022/06/20 10:03:46;;;;;;;248.40;235.10;;;;;;;27.97;51.28;96273.66;5075165;28;20311;-70
2022/06/20 10:06:39;;;;;;;236.82;223.85;;;;;;;27.49;52.42;96272.09;5056152;28;20208;-70
2022/06/20 10:09:43;;;;;;;277.55;262.27;;;;;;;26.37;55.51;96265.25;5074482;28;20305;-73
2022/06/20 10:12:19;;;;;;;299.48;282.67;;;;;;;26.03;56.44;96278.03;5072518;28;20200;-74
2022/06/20 10:14:56;;;;;;;276.60;261.08;;;;;;;26.14;56.13;96275.69;5068139;28;20193;-74
2022/06/20 10:17:38;;;;;;;187.50;176.40;;;;;;;26.97;54.30;96266.97;5073945;28;20256;-74
2022/06/20 10:20:40;;;;;;;169.30;159.50;;;;;;;26.77;54.76;96271.38;5074424;28;20524;-73
2022/06/20 10:23:24;;;;;;;167.35;157.65;;;;;;;27.47;52.83;96268.22;5044855;28;20203;-74
2022/06/20 10:26:25;;;;;;;242.27;229.27;;;;;;;27.30;53.01;96270.13;5067294;28;20631;-74
2022/06/20 10:29:06;;;;;;;257.13;242.90;;;;;;;27.83;51.61;96267.94;5058891;28;20237;-74
2022/06/20 10:31:40;;;;;;;166.55;157.25;;;;;;;28.32;50.07;96262.09;5074221;28;20185;-73
2022/06/20 10:34:19;;;;;;;322.38;304.67;;;;;;;29.12;47.58;96262.16;5073836;28;20545;-74
2022/06/20 10:36:47;;;;;;;308.65;291.38;;;;;;;27.99;49.99;96266.00;5074916;28;20221;-73
2022/06/20 10:39:40;;;;;;;308.15;290.63;;;;;;;28.48;49.96;96271.69;5073499;28;20252;-71
2022/06/20 10:42:29;;;;;;;400.35;377.10;;;;;;;28.43;50.98;96271.97;5074497;28;20190;-73
2022/06/20 10:45:27;;;;;;;377.83;356.45;;;;;;;28.42;50.69;96266.97;5075264;28;20181;-72
2022/06/20 10:48:07;;;;;;;339.60;320.65;;;;;;;28.46;49.43;96267.81;5070130;28;20197;-71
2022/06/20 10:50:41;;;;;;;326.23;308.02;;;;;;;28.57;49.85;96270.72;5074073;28;20185;-72
2022/06/20 10:53:14;;;;;;;310.02;292.40;;;;;;;28.02;50.15;96267.22;5074029;28;20181;-71
2022/06/20 10:55:47;;;;;;;282.15;266.25;;;;;;;28.18;50.15;96276.06;5074794;28;20185;-71
2022/06/20 10:58:29;;;;;;;287.67;271.65;;;;;;;28.04;50.26;96267.63;5075395;28;20196;-71
2022/06/20 11:01:04;;;;;;;493.17;464.58;;;;;;;28.26;47.34;96261.59;5071550;28;20166;-67
2022/06/20 11:03:53;;;;;;;554.95;520.40;;;;;;;29.07;45.60;96259.75;5072265;28;20180;-67
2022/06/20 11:06:34;;;;;;;830.75;768.13;;;;;;;29.63;43.69;96267.28;5073358;28;20556;-68
2022/06/20 11:09:19;;;;;;;452.48;422.52;;;;;;;30.00;41.59;96275.59;5073651;28;20292;-68
2022/06/20 11:11:58;;;;;;;464.95;435.02;;;;;;;28.90;45.02;96266.41;5073246;28;20177;-68
2022/06/20 11:14:32;;;;;;;471.40;442.30;;;;;;;28.39;45.82;96267.66;5072631;28;20193;-67
2022/06/20 11:17:17;;;;;;;703.85;658.22;;;;;;;27.94;45.54;96274.34;5072968;28;20176;-67
2022/06/20 11:20:08;;;;;;;525.08;492.90;;;;;;;27.97;44.54;96278.28;5073833;28;20173;-67
2022/06/20 11:23:02;;;;;;;399.33;377.05;;;;;;;27.75;43.68;96290.47;5073782;28;20208;-67
2022/06/20 11:25:30;;;;;;;465.00;439.35;;;;;;;27.37;44.48;96290.25;5055557;28;20181;-67
2022/06/20 11:28:12;;;;;;;563.08;527.53;;;;;;;27.56;44.99;96299.25;5074414;28;20193;-67
2022/06/20 11:31:03;;;;;;;659.80;620.78;;;;;;;27.81;45.31;96299.06;5065234;28;20238;-68
2022/06/20 11:34:01;;;;;;;741.58;693.67;;;;;;;28.04;46.05;96300.75;5070264;28;20645;-68
2022/06/20 11:36:47;;;;;;;554.45;521.38;;;;;;;27.67;48.14;96308.38;5065276;28;20212;-66
2022/06/20 11:39:27;;;;;;;574.13;539.58;;;;;;;27.26;49.53;96308.81;5068657;28;20258;-68
2022/06/20 11:42:00;;;;;;;594.30;557.47;;;;;;;27.84;48.79;96312.63;5060921;28;20499;-68
2022/06/20 11:44:37;;;;;;;656.13;613.28;;;;;;;27.17;50.29;96314.38;5073241;28;20181;-67
2022/06/20 11:47:08;;;;;;;591.25;552.78;;;;;;;27.88;49.10;96324.25;5071993;28;20196;-68
2022/06/20 11:49:46;;;;;;;576.88;539.78;;;;;;;27.08;50.56;96308.38;5072241;28;20200;-68